Aviation Digital Data Service (ADDS)

Output produced by METARs form (0915 UTC 19 November 2018)
found at http://www.aviationweather.gov/metar/data/
 
RJCK 190906Z 32007KT 3000 BCFG +SHRA BR FEW001 SCT004 BKN005 05/04 Q1011 RMK 1ST001 4ST004 7ST005 A2985
RJCK 190900Z 33008KT 3000 BCFG SHRA BR FEW001 SCT004 BKN005 05/05 Q1010
RJCK 190837Z 32007KT 2400 BCFG SHRA BR FEW001 SCT004 BKN005 05/05 Q1011 RMK 1ST001 4ST004 6ST005 A2986
RJCK 190834Z 32007KT 1600 BCFG SHRA BR FEW001 BKN004 BKN005 05/05 Q1011 RMK 2ST001 5ST004 7ST005 A2986
RJCK 190823Z 34006KT 1500 R17/0900VP2000U BCFG SHRA BR FEW001 BKN004 BKN005 05/05 Q1011 RMK 2ST001 5ST004 7ST005 A2985
RJCK 190819Z 33006KT 1200 R17/0900VP2000U BCFG SHRA BR FEW001 BKN004 BKN005 04/04 Q1011 RMK 2ST001 5ST004 7ST005 A2985
TAF RJCK 190511Z 1906/2012 15013KT 9999 -SHRA FEW003 BKN025 
     TEMPO 1906/1910 1500 SHRA BR BKN003 BKN025 FEW025CB 
     BECMG 1907/1909 32006KT 
     TEMPO 1910/1912 3000 -SHRA BR FEW003 BKN006 
     TEMPO 1912/1915 FEW003 BKN006